createdAt,value
2022-12-23T00:02:13.053Z,112.20
2022-12-23T00:04:56.144Z,104.23
2022-12-23T00:07:39.324Z,92.97
2022-12-23T00:10:22.459Z,102.57
2022-12-23T00:13:23.157Z,100.90
2022-12-23T00:16:09.407Z,99.07
2022-12-23T00:18:53.858Z,99.50
2022-12-23T00:21:36.983Z,91.97
2022-12-23T00:24:20.040Z,98.10
2022-12-23T00:27:03.088Z,102.90
2022-12-23T00:29:46.061Z,99.57
2022-12-23T00:32:30.514Z,107.47
2022-12-23T00:35:13.490Z,100.83
2022-12-23T00:37:56.450Z,106.83
2022-12-23T00:40:56.896Z,103.83
2022-12-23T00:43:39.879Z,98.57
2022-12-23T00:46:23.786Z,103.57
2022-12-23T00:49:26.012Z,99.10
2022-12-23T00:52:11.116Z,94.17
2022-12-23T00:54:54.089Z,98.60
2022-12-23T00:57:37.088Z,98.13
2022-12-23T01:00:20.729Z,89.73
2022-12-23T01:03:32.642Z,101.73
2022-12-23T01:06:17.639Z,99.13
2022-12-23T01:09:00.629Z,96.83
2022-12-23T01:11:43.998Z,100.97
2022-12-23T01:14:27.508Z,98.10
2022-12-23T01:17:10.638Z,103.23
2022-12-23T01:19:53.772Z,97.87
2022-12-23T01:22:38.216Z,87.43
2022-12-23T01:25:21.311Z,74.20
2022-12-23T01:28:04.353Z,72.73
2022-12-23T01:30:47.388Z,78.27
2022-12-23T01:33:30.753Z,74.43
2022-12-23T01:36:13.804Z,77.07
2022-12-23T01:38:58.476Z,77.47
2022-12-23T01:41:59.256Z,72.50
2022-12-23T01:45:03.720Z,52.93
2022-12-23T01:47:51.092Z,44.17
2022-12-23T01:50:39.152Z,42.77
2022-12-23T01:53:25.621Z,39.40
2022-12-23T01:56:15.690Z,42.53
2022-12-23T01:59:01.906Z,43.13
2022-12-23T02:02:02.557Z,45.03
2022-12-23T02:04:45.777Z,68.27
2022-12-23T02:07:47.027Z,72.53
2022-12-23T02:10:37.456Z,77.67
2022-12-23T02:13:29.247Z,78.43
2022-12-23T02:16:19.740Z,79.30
2022-12-23T02:19:13.618Z,91.30
2022-12-23T02:22:19.842Z,95.30
2022-12-23T02:25:27.647Z,85.30
2022-12-23T02:28:37.245Z,109.77
2022-12-23T02:31:30.583Z,101.03
2022-12-23T02:34:20.226Z,84.83
2022-12-23T02:37:10.252Z,89.03
2022-12-23T02:39:59.852Z,101.23
2022-12-23T02:42:47.989Z,107.23
2022-12-23T02:45:38.929Z,105.90
2022-12-23T02:48:30.425Z,125.13
2022-12-23T02:51:16.142Z,135.20
2022-12-23T02:54:04.016Z,124.80
2022-12-23T02:56:50.485Z,121.47
2022-12-23T02:59:41.581Z,134.60
2022-12-23T03:02:24.802Z,118.30
2022-12-23T03:05:28.354Z,123.83
2022-12-23T03:08:24.088Z,104.17
2022-12-23T03:11:09.950Z,97.30
2022-12-23T03:14:21.969Z,98.97
2022-12-23T03:17:19.309Z,97.67
2022-12-23T03:20:09.528Z,96.40
2022-12-23T03:23:02.405Z,93.83
2022-12-23T03:25:54.902Z,102.30
2022-12-23T03:28:43.801Z,98.43
2022-12-23T03:31:30.326Z,85.10
2022-12-23T03:34:17.733Z,88.40
2022-12-23T03:37:07.256Z,102.17
2022-12-23T03:39:58.024Z,88.27
2022-12-23T03:42:44.535Z,89.77
2022-12-23T03:45:40.696Z,109.57
2022-12-23T03:48:29.038Z,100.83
2022-12-23T03:51:16.854Z,92.87
2022-12-23T03:54:02.798Z,93.07
2022-12-23T03:56:51.951Z,86.10
2022-12-23T03:59:38.234Z,98.23
2022-12-23T04:02:27.725Z,103.27
2022-12-23T04:05:21.502Z,94.23
2022-12-23T04:08:13.124Z,85.17
2022-12-23T04:10:56.338Z,88.13
2022-12-23T04:13:40.847Z,83.30
2022-12-23T04:16:25.231Z,89.67
2022-12-23T04:19:08.755Z,81.40
2022-12-23T04:21:51.892Z,81.73
2022-12-23T04:24:35.139Z,89.30
2022-12-23T04:27:18.389Z,81.10
2022-12-23T04:30:02.877Z,80.57
2022-12-23T04:32:46.144Z,88.40
2022-12-23T04:35:29.250Z,78.50
2022-12-23T04:38:12.269Z,83.17
2022-12-23T04:40:55.281Z,98.50
2022-12-23T04:43:38.320Z,89.83
2022-12-23T04:46:22.879Z,88.13
2022-12-23T04:49:06.026Z,89.03
2022-12-23T04:51:49.108Z,87.83
2022-12-23T04:54:32.156Z,92.50
2022-12-23T04:57:15.444Z,89.67
2022-12-23T04:59:58.515Z,101.23
2022-12-23T05:02:43.019Z,91.27
2022-12-23T05:05:26.225Z,91.40
2022-12-23T05:08:09.357Z,88.87
2022-12-23T05:10:52.592Z,96.47
2022-12-23T05:13:35.614Z,92.63
2022-12-23T05:16:18.913Z,97.23
2022-12-23T05:19:03.431Z,100.77
2022-12-23T05:21:46.784Z,95.70
2022-12-23T05:24:29.868Z,92.93
2022-12-23T05:27:12.920Z,89.90
2022-12-23T05:29:56.338Z,86.23
2022-12-23T05:32:40.173Z,88.63
2022-12-23T05:35:25.850Z,78.70
2022-12-23T05:38:09.103Z,93.03
2022-12-23T05:40:52.204Z,87.40
2022-12-23T05:43:35.446Z,90.60
2022-12-23T05:46:24.267Z,84.73
2022-12-23T05:49:09.423Z,93.13
2022-12-23T05:51:54.249Z,88.33
2022-12-23T05:54:37.330Z,83.57
2022-12-23T05:57:20.532Z,87.00
2022-12-23T06:00:04.500Z,91.47
2022-12-23T06:02:53.595Z,90.63
2022-12-23T06:05:38.949Z,91.07
2022-12-23T06:08:23.669Z,94.67
2022-12-23T06:11:07.453Z,84.57
2022-12-23T06:13:50.512Z,86.27
2022-12-23T06:16:33.649Z,87.03
2022-12-23T06:19:16.761Z,86.83
2022-12-23T06:22:00.039Z,88.57
2022-12-23T06:24:45.184Z,92.03
2022-12-23T06:27:28.293Z,86.23
2022-12-23T06:30:12.193Z,97.30
2022-12-23T06:32:55.205Z,106.93
2022-12-23T06:35:38.221Z,90.17
2022-12-23T06:38:21.322Z,96.37
2022-12-23T06:41:06.045Z,91.83
2022-12-23T06:43:54.164Z,91.77
2022-12-23T06:46:37.497Z,101.57
2022-12-23T06:49:20.550Z,107.03
2022-12-23T06:52:03.601Z,114.97
2022-12-23T06:54:46.701Z,101.77
2022-12-23T06:57:31.181Z,97.87
2022-12-23T07:00:15.592Z,109.33
2022-12-23T07:02:58.881Z,119.00
2022-12-23T07:05:41.979Z,109.77
2022-12-23T07:08:25.060Z,98.10
2022-12-23T07:11:08.691Z,103.23
2022-12-23T07:13:53.138Z,113.73
2022-12-23T07:16:36.237Z,134.83
2022-12-23T07:19:19.733Z,111.70
2022-12-23T07:22:03.379Z,120.73
2022-12-23T07:24:47.940Z,119.63
2022-12-23T07:27:31.111Z,130.77
2022-12-23T07:30:16.150Z,119.47
2022-12-23T07:32:59.217Z,124.13
2022-12-23T07:35:42.823Z,104.90
2022-12-23T07:38:25.956Z,123.70
2022-12-23T07:41:09.059Z,114.10
2022-12-23T07:43:53.454Z,112.73
2022-12-23T07:46:38.461Z,108.43
2022-12-23T07:49:21.618Z,103.30
2022-12-23T07:52:04.999Z,103.70
2022-12-23T07:54:47.962Z,109.83
2022-12-23T07:57:31.047Z,90.37
2022-12-23T08:00:15.293Z,85.20
2022-12-23T08:03:00.059Z,94.53
2022-12-23T08:05:43.269Z,80.37
2022-12-23T08:08:26.815Z,84.73
2022-12-23T08:11:11.857Z,79.70
2022-12-23T08:13:54.944Z,72.27
2022-12-23T08:16:43.329Z,69.97
2022-12-23T08:19:28.541Z,67.70
2022-12-23T08:22:11.678Z,76.20
2022-12-23T08:24:54.706Z,90.60
2022-12-23T08:27:38.798Z,91.63
2022-12-23T08:30:21.899Z,86.33
2022-12-23T08:33:05.473Z,78.03
2022-12-23T08:35:50.031Z,81.10
2022-12-23T08:38:33.505Z,70.13
2022-12-23T08:41:19.173Z,70.03
2022-12-23T08:44:02.488Z,68.60
2022-12-23T08:46:46.189Z,67.57
2022-12-23T08:49:29.477Z,70.73
2022-12-23T08:52:14.011Z,73.83
2022-12-23T08:54:57.129Z,66.03
2022-12-23T08:57:40.220Z,70.27
2022-12-23T09:00:23.721Z,73.00
2022-12-23T09:03:07.666Z,65.83
2022-12-23T09:05:50.768Z,82.40
2022-12-23T09:08:36.735Z,66.13
2022-12-23T09:11:22.360Z,72.40
2022-12-23T09:14:07.049Z,69.93
2022-12-23T09:16:52.644Z,69.73
2022-12-23T09:19:35.724Z,70.20
2022-12-23T09:22:18.809Z,70.33
2022-12-23T09:25:05.384Z,69.57
2022-12-23T09:27:48.730Z,79.33
2022-12-23T09:30:31.837Z,74.30
2022-12-23T09:33:15.018Z,77.00
2022-12-23T09:36:00.923Z,80.03
2022-12-23T09:38:44.164Z,81.83
2022-12-23T09:41:54.418Z,72.73
2022-12-23T09:44:56.441Z,76.90
2022-12-23T09:47:41.388Z,76.87
2022-12-23T09:50:28.816Z,69.93
2022-12-23T09:53:15.880Z,84.30
2022-12-23T09:56:03.509Z,70.23
2022-12-23T09:58:55.472Z,72.50
2022-12-23T10:01:45.867Z,71.83
2022-12-23T10:04:40.800Z,69.17
2022-12-23T10:07:31.876Z,77.33
2022-12-23T10:10:19.312Z,62.33
2022-12-23T10:13:06.170Z,70.77
2022-12-23T10:15:53.191Z,68.17
2022-12-23T10:18:45.159Z,61.87
2022-12-23T10:21:33.489Z,75.00
2022-12-23T10:24:22.248Z,68.17
2022-12-23T10:27:19.396Z,73.70
2022-12-23T10:30:33.788Z,62.13
2022-12-23T10:33:23.179Z,64.27
2022-12-23T10:36:13.525Z,70.67
2022-12-23T10:39:03.957Z,69.80
2022-12-23T10:41:57.075Z,73.47
2022-12-23T10:45:00.742Z,79.73
2022-12-23T10:47:53.603Z,75.77
2022-12-23T10:50:51.294Z,79.97
2022-12-23T10:53:40.805Z,79.03
2022-12-23T10:56:24.752Z,80.70
2022-12-23T10:59:13.411Z,81.53
2022-12-23T11:02:03.016Z,82.33
2022-12-23T11:04:50.311Z,79.00
2022-12-23T11:07:45.192Z,78.70
2022-12-23T11:10:34.258Z,76.57
2022-12-23T11:13:26.991Z,75.40
2022-12-23T11:16:19.104Z,74.20
2022-12-23T11:19:05.912Z,68.40
2022-12-23T11:21:56.386Z,79.30
2022-12-23T11:24:43.300Z,86.43
2022-12-23T11:27:26.823Z,82.83
2022-12-23T11:30:20.272Z,88.73
2022-12-23T11:33:03.789Z,83.27
2022-12-23T11:35:47.275Z,76.70
2022-12-23T11:38:32.107Z,92.00
2022-12-23T11:41:21.375Z,79.40
2022-12-23T11:44:07.888Z,92.53
2022-12-23T11:46:52.032Z,97.23
2022-12-23T11:49:35.880Z,87.57
2022-12-23T11:52:21.709Z,90.70
2022-12-23T11:55:07.124Z,86.90
2022-12-23T11:57:53.058Z,98.27
2022-12-23T12:00:42.256Z,101.90
2022-12-23T12:03:29.796Z,90.40
2022-12-23T12:06:16.614Z,101.37
2022-12-23T12:09:03.164Z,105.23
2022-12-23T12:11:49.868Z,113.03
2022-12-23T12:14:42.120Z,108.03
2022-12-23T12:17:32.615Z,109.30
2022-12-23T12:20:26.705Z,108.23
2022-12-23T12:23:16.130Z,107.73
2022-12-23T12:26:03.388Z,102.77
2022-12-23T12:28:49.026Z,105.60
2022-12-23T12:31:38.784Z,122.60
2022-12-23T12:34:35.235Z,90.57
2022-12-23T12:37:27.202Z,104.13
2022-12-23T12:40:24.290Z,104.67
2022-12-23T12:43:20.060Z,106.27
2022-12-23T12:46:13.038Z,109.83
2022-12-23T12:49:05.104Z,110.43
2022-12-23T12:51:53.280Z,104.37
2022-12-23T12:54:44.276Z,111.37
2022-12-23T12:57:28.144Z,93.23
2022-12-23T13:00:17.661Z,100.10
2022-12-23T13:03:16.884Z,106.47
2022-12-23T13:06:22.078Z,94.80
2022-12-23T13:09:15.786Z,106.60
2022-12-23T13:12:06.903Z,100.80
2022-12-23T13:15:02.565Z,105.90
2022-12-23T13:17:52.318Z,102.07
2022-12-23T13:20:44.592Z,102.07
2022-12-23T13:23:44.811Z,98.63
2022-12-23T13:26:37.270Z,85.27
2022-12-23T13:29:42.266Z,122.17
2022-12-23T13:32:39.445Z,97.30
2022-12-23T13:35:35.806Z,105.07
2022-12-23T13:38:42.342Z,111.07
2022-12-23T13:41:33.792Z,101.73
2022-12-23T13:44:18.961Z,98.67
2022-12-23T13:47:14.523Z,97.90
2022-12-23T13:50:05.029Z,94.77
2022-12-23T13:53:08.856Z,113.70
2022-12-23T13:56:12.873Z,100.03
2022-12-23T13:58:56.378Z,112.23
2022-12-23T14:01:47.219Z,93.47
2022-12-23T14:04:37.618Z,95.10
2022-12-23T14:07:23.354Z,90.10
2022-12-23T14:10:13.840Z,107.20
2022-12-23T14:13:04.249Z,95.13
2022-12-23T14:16:03.646Z,96.57
2022-12-23T14:19:12.601Z,105.37
2022-12-23T14:22:08.780Z,91.63
2022-12-23T14:25:48.181Z,94.03
2022-12-23T14:29:04.293Z,99.93
2022-12-23T14:31:56.101Z,94.67
2022-12-23T14:34:39.321Z,96.20
2022-12-23T14:37:36.008Z,92.47
2022-12-23T14:40:58.156Z,121.90
2022-12-23T14:44:02.839Z,113.83
2022-12-23T14:46:57.445Z,117.13
2022-12-23T14:49:44.177Z,126.30
2022-12-23T14:53:00.894Z,150.30
2022-12-23T14:55:48.359Z,154.60
2022-12-23T14:59:01.118Z,157.27
2022-12-23T15:01:50.081Z,113.37
2022-12-23T15:04:48.010Z,125.67
2022-12-23T15:07:35.235Z,116.07
2022-12-23T15:10:21.861Z,126.63
2022-12-23T15:13:06.321Z,123.17
2022-12-23T15:16:00.669Z,100.37
2022-12-23T15:18:55.371Z,119.90
2022-12-23T15:21:38.481Z,190.57
2022-12-23T15:24:23.386Z,114.13
2022-12-23T15:27:26.422Z,125.50
2022-12-23T15:30:14.224Z,130.87
2022-12-23T15:33:00.614Z,124.70
2022-12-23T15:35:46.022Z,144.17
2022-12-23T15:38:32.805Z,153.03
2022-12-23T15:41:18.825Z,173.93
2022-12-23T15:44:02.144Z,175.90
2022-12-23T15:46:45.578Z,160.10
2022-12-23T15:49:31.314Z,156.87
2022-12-23T15:52:20.498Z,157.90
2022-12-23T15:55:14.868Z,170.53
2022-12-23T15:58:00.718Z,187.07
2022-12-23T16:00:54.376Z,166.63
2022-12-23T16:03:40.829Z,147.43
2022-12-23T16:06:26.900Z,138.53
2022-12-23T16:09:32.177Z,155.97
2022-12-23T16:12:24.344Z,165.00
2022-12-23T16:15:22.999Z,178.10
2022-12-23T16:18:20.910Z,178.60
2022-12-23T16:21:06.901Z,186.63
2022-12-23T16:23:54.217Z,154.90
2022-12-23T16:26:43.529Z,159.17
2022-12-23T16:29:26.676Z,136.97
2022-12-23T16:32:18.567Z,133.17
2022-12-23T16:35:11.399Z,146.10
2022-12-23T16:37:59.356Z,145.67
2022-12-23T16:40:42.875Z,90.97
2022-12-23T16:43:27.386Z,128.00
2022-12-23T16:46:17.634Z,131.50
2022-12-23T16:49:04.978Z,144.90
2022-12-23T16:51:48.683Z,127.70
2022-12-23T16:54:32.043Z,117.93
2022-12-23T16:57:15.105Z,115.57
2022-12-23T16:59:59.691Z,135.23
2022-12-23T17:02:43.359Z,127.90
2022-12-23T17:05:26.487Z,111.47
2022-12-23T17:08:09.749Z,127.97
2022-12-23T17:10:53.389Z,129.53
2022-12-23T17:13:36.413Z,132.47
2022-12-23T17:16:25.528Z,89.00
2022-12-23T17:19:08.697Z,121.97
2022-12-23T17:21:58.514Z,120.93
2022-12-23T17:24:41.817Z,120.87
2022-12-23T17:27:25.367Z,118.90
2022-12-23T17:30:14.815Z,121.00
2022-12-23T17:33:01.465Z,125.57
2022-12-23T17:35:44.641Z,99.17
2022-12-23T17:38:29.144Z,105.20
2022-12-23T17:41:20.741Z,108.63
2022-12-23T17:44:03.882Z,95.60
2022-12-23T17:46:47.890Z,105.63
2022-12-23T17:49:32.391Z,104.50
2022-12-23T17:52:17.742Z,100.77
2022-12-23T17:55:00.908Z,102.47
2022-12-23T17:57:45.144Z,108.27
2022-12-23T18:00:34.159Z,103.10
2022-12-23T18:03:23.683Z,126.93
2022-12-23T18:06:12.888Z,131.93
2022-12-23T18:08:57.040Z,134.90
2022-12-23T18:11:43.486Z,135.50
2022-12-23T18:14:28.530Z,129.87
2022-12-23T18:17:16.568Z,132.57
2022-12-23T18:20:00.125Z,125.07
2022-12-23T18:22:45.185Z,101.23
2022-12-23T18:25:28.562Z,86.57
2022-12-23T18:28:12.357Z,65.47
2022-12-23T18:30:58.312Z,47.77
2022-12-23T18:33:41.904Z,45.37
2022-12-23T18:36:27.854Z,47.63
2022-12-23T18:39:12.641Z,44.67
2022-12-23T18:41:56.357Z,38.77
2022-12-23T18:44:39.432Z,32.23
2022-12-23T18:47:22.511Z,40.20
2022-12-23T18:50:06.208Z,39.50
2022-12-23T18:52:49.417Z,37.90
2022-12-23T18:55:34.753Z,37.57
2022-12-23T18:58:19.114Z,39.27
2022-12-23T19:01:02.289Z,40.80
2022-12-23T19:03:46.352Z,49.10
2022-12-23T19:06:29.672Z,48.47
2022-12-23T19:09:17.577Z,49.97
2022-12-23T19:12:02.005Z,39.90
2022-12-23T19:14:46.417Z,47.57
2022-12-23T19:17:29.700Z,37.80
2022-12-23T19:20:15.217Z,41.37
2022-12-23T19:22:58.384Z,45.80
2022-12-23T19:25:42.016Z,40.77
2022-12-23T19:28:27.234Z,35.23
2022-12-23T19:31:11.092Z,29.40
2022-12-23T19:33:54.291Z,33.00
2022-12-23T19:36:37.716Z,33.53
2022-12-23T19:39:22.094Z,36.83
2022-12-23T19:42:05.161Z,33.80
2022-12-23T19:44:49.600Z,37.50
2022-12-23T19:47:32.695Z,34.57
2022-12-23T19:50:15.784Z,31.00
2022-12-23T19:52:58.947Z,32.13
2022-12-23T19:55:41.990Z,29.90
2022-12-23T19:58:25.196Z,38.43
2022-12-23T20:01:13.146Z,39.40
2022-12-23T20:03:57.260Z,35.20
2022-12-23T20:06:43.444Z,35.43
2022-12-23T20:09:27.308Z,40.27
2022-12-23T20:12:12.096Z,36.43
2022-12-23T20:14:55.941Z,42.97
2022-12-23T20:17:40.816Z,41.17
2022-12-23T20:20:24.401Z,37.67
2022-12-23T20:23:07.866Z,33.40
2022-12-23T20:25:51.482Z,34.73
2022-12-23T20:28:35.072Z,41.53
2022-12-23T20:31:20.192Z,36.67
2022-12-23T20:34:06.227Z,35.10
2022-12-23T20:36:49.518Z,45.57
2022-12-23T20:39:32.808Z,62.83
2022-12-23T20:42:16.043Z,131.23
2022-12-23T20:44:59.437Z,120.43
2022-12-23T20:47:42.506Z,128.13
2022-12-23T20:50:26.971Z,130.37
2022-12-23T20:53:10.634Z,135.13
2022-12-23T20:55:53.675Z,144.83
2022-12-23T20:59:00.393Z,142.07
2022-12-23T21:01:43.951Z,136.63
2022-12-23T21:04:27.202Z,137.33
2022-12-23T21:07:11.932Z,84.97
2022-12-23T21:09:54.981Z,107.90
2022-12-23T21:12:38.203Z,89.33
2022-12-23T21:15:22.997Z,88.80
2022-12-23T21:18:06.351Z,76.37
2022-12-23T21:20:49.473Z,62.40
2022-12-23T21:23:37.343Z,46.67
2022-12-23T21:26:23.097Z,37.37
2022-12-23T21:29:07.952Z,34.23
2022-12-23T21:31:51.011Z,31.67
2022-12-23T21:34:34.147Z,49.70
2022-12-23T21:37:17.252Z,47.73
2022-12-23T21:40:01.867Z,38.97
2022-12-23T21:42:44.819Z,37.03
2022-12-23T21:45:27.843Z,36.10
2022-12-23T21:48:10.929Z,33.63
2022-12-23T21:50:54.756Z,33.97
2022-12-23T21:53:38.137Z,30.53
2022-12-23T21:56:25.559Z,29.47
2022-12-23T21:59:11.520Z,29.27
2022-12-23T22:01:54.696Z,33.70
2022-12-23T22:04:37.905Z,31.60
2022-12-23T22:07:20.892Z,30.73
2022-12-23T22:10:03.981Z,31.53
2022-12-23T22:12:48.434Z,33.07
2022-12-23T22:15:31.442Z,29.97
2022-12-23T22:18:14.454Z,27.27
2022-12-23T22:20:57.498Z,26.77
2022-12-23T22:23:40.899Z,27.90
2022-12-23T22:26:26.473Z,25.87
2022-12-23T22:29:12.851Z,23.50
2022-12-23T22:31:55.927Z,27.43
2022-12-23T22:34:39.062Z,25.70
2022-12-23T22:37:22.142Z,27.93
2022-12-23T22:40:06.113Z,26.40
2022-12-23T22:42:49.152Z,29.23
2022-12-23T22:45:33.805Z,28.00
2022-12-23T22:48:17.199Z,27.73
2022-12-23T22:51:04.141Z,24.17
2022-12-23T22:53:47.849Z,23.77
2022-12-23T22:56:31.002Z,27.10
2022-12-23T22:59:21.343Z,28.63
2022-12-23T23:02:05.865Z,26.63
2022-12-23T23:04:49.199Z,35.33
2022-12-23T23:07:32.256Z,33.17
2022-12-23T23:10:16.051Z,24.63
2022-12-23T23:12:59.045Z,27.60
2022-12-23T23:15:42.124Z,25.37
2022-12-23T23:18:27.599Z,26.37
2022-12-23T23:21:12.786Z,32.87
2022-12-23T23:23:55.904Z,25.00
2022-12-23T23:26:38.973Z,26.67
2022-12-23T23:29:21.993Z,26.57
2022-12-23T23:32:06.261Z,27.00
2022-12-23T23:34:50.695Z,33.23
2022-12-23T23:37:33.713Z,32.97
2022-12-23T23:40:17.086Z,32.43
2022-12-23T23:43:00.471Z,25.47
2022-12-23T23:45:43.619Z,27.43
2022-12-23T23:48:26.703Z,27.03
2022-12-23T23:51:12.541Z,28.83
2022-12-23T23:53:55.716Z,32.23
2022-12-23T23:56:39.578Z,31.20
2022-12-23T23:59:22.825Z,26.37
